Airfield :
LOGIN :

Register | Disclaimer

   EN    FR    IT 

 










Legend :    VFR   Marginal VFR   IFR   Intensive IFR   Very Intensive IFR
Visi :
Ceiling :
>= 8 km
>= 3000ft
5 to 8 km
1000 to 3000 ft
1500m to 5 km
500 to 1000 ft
800 to 1500m
200 to 500 ft
< 800m
< 200 ft
Symbols :   Thunderstorms  Fog  Heavy snow  Heavy precipitations  Wind > 20 kt
SIGMETs :     Misc.  Thunderstorms  Icing  Turbulence  Mountain Waves  Volcanic Ashes







- Airport Elevation : 16 ft
- IATA code : SDR


LEXJ - Santander Cantabria

CURRENT METAR :
  • 180500Z 09004KT 060V120 9999 SCT019 SCT043 21/21 Q1014

EXPIRED METARs :
  • 180430Z 09004KT 060V120 9999 SCT019 BKN038 21/21 Q1014
  • 180400Z 08003KT 050V120 9999 SCT023 BKN042 21/21 Q1015
  • 180330Z 08003KT 050V120 9999 SCT021 BKN042 21/21 Q1015
  • 180300Z AUTO 08004KT 050V120 8000 BKN019/// OVC038/// 21/21 Q1015
  • 180230Z AUTO 09003KT 050V120 8000 BKN020/// OVC043/// 21/21 Q1015
  • 180200Z AUTO 07004KT 020V110 8000 OVC018/// 21/21 Q1016

TAF TAF LEXJ
Valid from the 18 at 03:00 until the 19 at 03:00 UTC


180200Z 1803/1903 07007KT 9999 FEW025 BKN040 TX24/1814Z TN19/1805Z
PROB30
TEMPO 1804/1808 BKN014
PROB40
TEMPO 1810/1820 SHRA FEW025TCU SCT030CB
PROB30
TEMPO 1811/1817 TSRA BKN030CB
No reported NOTAMs for that airfield.



MET'MAP, your aeronautical weather chart ! - Copyright ORBIFLY December 2007 - Disclaimer

ORBIFLY MET'MAP TEAM :

Programming & Development : Alexandra Zaïnal
Concept & Development : Baudouin d'Aumeries
Co-Development & Prog : Marc-Olivier Méhu
Technical & hardware support : Manuel Goepfert

Contact : metmap@orbifly.com




SOURCES & CREDITS :

   NOAA